Big Oak Valley, California
Current Conditions -  °F | °C
As of 3:58 AM on Sunday 23 Nov 2014 (Local Time) from KBAB Reporting Station
Scattered Clouds Scattered Clouds  
Wind Chill: 37°   Ceiling: Unl
Heat Index: 42°   Visibility: 10mi
Dew Point: 42°   Wind: 9mph
Humidity: 100%   Direction: 320°NW
Pressure: 30.27"   Gusts: NA
Location:  39.1816°N, 121.266°W
Report Text: KBAB 231158Z AUTO 32008KT 10SM SCT180 06/06 A3027 RMK AO2 SLP328 60000 70020 T00570057 10107 20049 $
Loading
Personal Weather Stations






























Interactive Weather Map New forecast layout! Learn more

10-Day Weather Forecast

Advertisements
Track Severe Weather on mobile